sensor_id;sensor_type;location;lat;lon;timestamp;P1;durP1;ratioP1;P2;durP2;ratioP2
3875;SDS011;1953;51.222;6.624;2023-05-14T00:01:07;34.13;;;23.27;;
3875;SDS011;1953;51.222;6.624;2023-05-14T00:05:49;28.33;;;23.03;;
3875;SDS011;1953;51.222;6.624;2023-05-14T00:11:45;34.90;;;22.57;;
3875;SDS011;1953;51.222;6.624;2023-05-14T00:16:27;30.43;;;23.27;;
3875;SDS011;1953;51.222;6.624;2023-05-14T00:21:10;28.07;;;23.03;;
3875;SDS011;1953;51.222;6.624;2023-05-14T00:25:52;31.17;;;23.33;;
3875;SDS011;1953;51.222;6.624;2023-05-14T00:30:36;27.63;;;22.00;;
3875;SDS011;1953;51.222;6.624;2023-05-14T00:35:19;29.37;;;23.40;;
3875;SDS011;1953;51.222;6.624;2023-05-14T00:40:02;28.97;;;23.50;;
3875;SDS011;1953;51.222;6.624;2023-05-14T00:44:46;29.97;;;23.93;;
3875;SDS011;1953;51.222;6.624;2023-05-14T00:49:30;31.47;;;24.50;;
3875;SDS011;1953;51.222;6.624;2023-05-14T00:54:13;31.30;;;23.97;;
3875;SDS011;1953;51.222;6.624;2023-05-14T00:58:56;29.60;;;25.13;;
3875;SDS011;1953;51.222;6.624;2023-05-14T01:03:39;32.30;;;26.07;;
3875;SDS011;1953;51.222;6.624;2023-05-14T01:08:26;28.77;;;23.77;;
3875;SDS011;1953;51.222;6.624;2023-05-14T01:13:17;33.60;;;25.97;;
3875;SDS011;1953;51.222;6.624;2023-05-14T01:18:08;44.10;;;26.03;;
3875;SDS011;1953;51.222;6.624;2023-05-14T01:22:53;31.93;;;26.63;;
3875;SDS011;1953;51.222;6.624;2023-05-14T01:27:37;37.10;;;26.77;;
3875;SDS011;1953;51.222;6.624;2023-05-14T01:32:23;37.57;;;28.83;;
3875;SDS011;1953;51.222;6.624;2023-05-14T01:37:07;39.60;;;29.17;;
3875;SDS011;1953;51.222;6.624;2023-05-14T01:41:53;45.50;;;30.50;;
3875;SDS011;1953;51.222;6.624;2023-05-14T01:46:37;41.77;;;29.80;;
3875;SDS011;1953;51.222;6.624;2023-05-14T01:51:19;39.67;;;28.10;;
3875;SDS011;1953;51.222;6.624;2023-05-14T01:56:02;38.73;;;28.10;;
3875;SDS011;1953;51.222;6.624;2023-05-14T02:00:46;38.53;;;29.00;;
3875;SDS011;1953;51.222;6.624;2023-05-14T02:05:28;37.77;;;29.23;;
3875;SDS011;1953;51.222;6.624;2023-05-14T02:10:11;44.13;;;31.47;;
3875;SDS011;1953;51.222;6.624;2023-05-14T02:14:53;40.77;;;32.20;;
3875;SDS011;1953;51.222;6.624;2023-05-14T02:19:37;39.63;;;29.20;;
3875;SDS011;1953;51.222;6.624;2023-05-14T02:24:20;43.87;;;31.13;;
3875;SDS011;1953;51.222;6.624;2023-05-14T02:29:03;39.40;;;29.77;;
3875;SDS011;1953;51.222;6.624;2023-05-14T02:33:46;39.03;;;29.30;;
3875;SDS011;1953;51.222;6.624;2023-05-14T02:38:29;44.33;;;30.67;;
3875;SDS011;1953;51.222;6.624;2023-05-14T02:43:12;40.67;;;29.13;;
3875;SDS011;1953;51.222;6.624;2023-05-14T02:47:54;36.50;;;28.70;;
3875;SDS011;1953;51.222;6.624;2023-05-14T02:52:37;43.80;;;29.80;;
3875;SDS011;1953;51.222;6.624;2023-05-14T02:57:21;44.07;;;28.27;;
3875;SDS011;1953;51.222;6.624;2023-05-14T03:02:04;37.50;;;29.23;;
3875;SDS011;1953;51.222;6.624;2023-05-14T03:06:46;40.47;;;29.07;;
3875;SDS011;1953;51.222;6.624;2023-05-14T03:11:29;39.67;;;29.63;;
3875;SDS011;1953;51.222;6.624;2023-05-14T03:16:13;38.80;;;29.60;;
3875;SDS011;1953;51.222;6.624;2023-05-14T03:20:55;38.63;;;28.70;;
3875;SDS011;1953;51.222;6.624;2023-05-14T03:25:38;37.37;;;27.63;;
3875;SDS011;1953;51.222;6.624;2023-05-14T03:30:20;36.03;;;27.60;;
3875;SDS011;1953;51.222;6.624;2023-05-14T03:35:05;41.20;;;30.07;;
3875;SDS011;1953;51.222;6.624;2023-05-14T03:39:48;42.80;;;31.70;;
3875;SDS011;1953;51.222;6.624;2023-05-14T03:44:31;39.97;;;30.00;;
3875;SDS011;1953;51.222;6.624;2023-05-14T03:49:13;44.80;;;31.53;;
3875;SDS011;1953;51.222;6.624;2023-05-14T03:53:57;49.90;;;31.13;;
3875;SDS011;1953;51.222;6.624;2023-05-14T03:58:40;34.67;;;26.73;;
3875;SDS011;1953;51.222;6.624;2023-05-14T04:03:22;37.43;;;28.67;;
3875;SDS011;1953;51.222;6.624;2023-05-14T04:08:05;40.57;;;28.90;;
3875;SDS011;1953;51.222;6.624;2023-05-14T04:12:48;35.40;;;27.43;;
3875;SDS011;1953;51.222;6.624;2023-05-14T04:17:31;35.90;;;26.90;;
3875;SDS011;1953;51.222;6.624;2023-05-14T04:22:13;33.17;;;26.60;;
3875;SDS011;1953;51.222;6.624;2023-05-14T04:26:56;36.90;;;27.03;;
3875;SDS011;1953;51.222;6.624;2023-05-14T04:31:40;35.20;;;25.30;;
3875;SDS011;1953;51.222;6.624;2023-05-14T04:36:22;33.47;;;24.47;;
3875;SDS011;1953;51.222;6.624;2023-05-14T04:41:05;34.00;;;25.73;;
3875;SDS011;1953;51.222;6.624;2023-05-14T04:49:58;36.07;;;25.53;;
3875;SDS011;1953;51.222;6.624;2023-05-14T04:54:40;36.97;;;28.50;;
3875;SDS011;1953;51.222;6.624;2023-05-14T04:59:23;38.23;;;28.40;;
3875;SDS011;1953;51.222;6.624;2023-05-14T05:04:05;36.03;;;27.83;;
3875;SDS011;1953;51.222;6.624;2023-05-14T05:08:49;39.40;;;28.17;;
3875;SDS011;1953;51.222;6.624;2023-05-14T05:13:32;38.77;;;26.57;;
3875;SDS011;1953;51.222;6.624;2023-05-14T05:18:14;38.87;;;28.83;;
3875;SDS011;1953;51.222;6.624;2023-05-14T05:22:57;36.80;;;28.80;;
3875;SDS011;1953;51.222;6.624;2023-05-14T05:27:41;38.50;;;29.10;;
3875;SDS011;1953;51.222;6.624;2023-05-14T05:32:23;46.63;;;32.83;;
3875;SDS011;1953;51.222;6.624;2023-05-14T05:37:06;42.93;;;31.80;;
3875;SDS011;1953;51.222;6.624;2023-05-14T05:41:52;51.40;;;35.10;;
3875;SDS011;1953;51.222;6.624;2023-05-14T05:46:36;47.20;;;34.57;;
3875;SDS011;1953;51.222;6.624;2023-05-14T05:51:19;53.27;;;36.97;;
3875;SDS011;1953;51.222;6.624;2023-05-14T05:56:01;47.00;;;35.10;;
3875;SDS011;1953;51.222;6.624;2023-05-14T06:00:44;49.87;;;34.17;;
3875;SDS011;1953;51.222;6.624;2023-05-14T06:05:28;55.40;;;35.00;;
3875;SDS011;1953;51.222;6.624;2023-05-14T06:10:11;43.00;;;32.57;;
3875;SDS011;1953;51.222;6.624;2023-05-14T06:14:53;45.17;;;33.27;;
3875;SDS011;1953;51.222;6.624;2023-05-14T06:19:37;47.40;;;33.50;;
3875;SDS011;1953;51.222;6.624;2023-05-14T06:24:21;44.17;;;32.10;;
3875;SDS011;1953;51.222;6.624;2023-05-14T06:29:03;48.57;;;33.10;;
3875;SDS011;1953;51.222;6.624;2023-05-14T06:33:46;46.00;;;33.97;;
3875;SDS011;1953;51.222;6.624;2023-05-14T06:38:28;41.47;;;32.33;;
3875;SDS011;1953;51.222;6.624;2023-05-14T06:43:12;43.20;;;33.63;;
3875;SDS011;1953;51.222;6.624;2023-05-14T06:47:55;40.60;;;32.30;;
3875;SDS011;1953;51.222;6.624;2023-05-14T06:52:37;48.00;;;33.47;;
3875;SDS011;1953;51.222;6.624;2023-05-14T06:57:20;44.07;;;33.03;;
3875;SDS011;1953;51.222;6.624;2023-05-14T07:02:04;43.43;;;32.50;;
3875;SDS011;1953;51.222;6.624;2023-05-14T07:06:46;46.30;;;33.13;;
3875;SDS011;1953;51.222;6.624;2023-05-14T07:11:29;41.67;;;31.63;;
3875;SDS011;1953;51.222;6.624;2023-05-14T07:16:11;39.77;;;32.07;;
3875;SDS011;1953;51.222;6.624;2023-05-14T07:20:55;46.33;;;33.53;;
3875;SDS011;1953;51.222;6.624;2023-05-14T07:25:38;40.57;;;32.97;;
3875;SDS011;1953;51.222;6.624;2023-05-14T07:30:21;41.93;;;31.53;;
3875;SDS011;1953;51.222;6.624;2023-05-14T07:35:03;40.83;;;30.70;;
3875;SDS011;1953;51.222;6.624;2023-05-14T07:39:48;38.80;;;30.40;;
3875;SDS011;1953;51.222;6.624;2023-05-14T07:44:30;40.80;;;30.80;;
3875;SDS011;1953;51.222;6.624;2023-05-14T07:49:13;36.17;;;28.90;;
3875;SDS011;1953;51.222;6.624;2023-05-14T07:53:55;38.57;;;30.33;;
3875;SDS011;1953;51.222;6.624;2023-05-14T07:58:39;41.20;;;30.80;;
3875;SDS011;1953;51.222;6.624;2023-05-14T08:03:22;35.67;;;30.10;;
3875;SDS011;1953;51.222;6.624;2023-05-14T08:08:04;35.43;;;29.53;;
3875;SDS011;1953;51.222;6.624;2023-05-14T08:12:47;37.27;;;28.00;;
3875;SDS011;1953;51.222;6.624;2023-05-14T08:17:31;36.20;;;30.60;;
3875;SDS011;1953;51.222;6.624;2023-05-14T08:22:13;38.53;;;30.30;;
3875;SDS011;1953;51.222;6.624;2023-05-14T08:26:56;33.77;;;28.60;;
3875;SDS011;1953;51.222;6.624;2023-05-14T08:31:38;39.40;;;28.53;;
3875;SDS011;1953;51.222;6.624;2023-05-14T08:36:22;35.93;;;29.23;;
3875;SDS011;1953;51.222;6.624;2023-05-14T08:41:05;33.83;;;28.03;;
3875;SDS011;1953;51.222;6.624;2023-05-14T08:45:49;34.30;;;27.90;;
3875;SDS011;1953;51.222;6.624;2023-05-14T08:50:38;37.17;;;25.60;;
3875;SDS011;1953;51.222;6.624;2023-05-14T08:55:22;33.50;;;27.97;;
3875;SDS011;1953;51.222;6.624;2023-05-14T09:00:06;29.33;;;24.43;;
3875;SDS011;1953;51.222;6.624;2023-05-14T09:04:53;32.20;;;25.50;;
3875;SDS011;1953;51.222;6.624;2023-05-14T09:09:37;33.23;;;26.20;;
3875;SDS011;1953;51.222;6.624;2023-05-14T09:14:21;30.83;;;25.83;;
3875;SDS011;1953;51.222;6.624;2023-05-14T09:19:04;25.70;;;22.90;;
3875;SDS011;1953;51.222;6.624;2023-05-14T09:23:47;25.23;;;22.00;;
3875;SDS011;1953;51.222;6.624;2023-05-14T09:28:35;31.37;;;27.17;;
3875;SDS011;1953;51.222;6.624;2023-05-14T09:33:26;27.30;;;23.60;;
3875;SDS011;1953;51.222;6.624;2023-05-14T09:38:09;29.00;;;25.37;;
3875;SDS011;1953;51.222;6.624;2023-05-14T09:42:52;26.17;;;21.10;;
3875;SDS011;1953;51.222;6.624;2023-05-14T09:47:36;23.87;;;19.60;;
3875;SDS011;1953;51.222;6.624;2023-05-14T09:52:20;28.33;;;21.30;;
3875;SDS011;1953;51.222;6.624;2023-05-14T09:57:04;18.27;;;16.37;;
3875;SDS011;1953;51.222;6.624;2023-05-14T10:01:47;19.80;;;17.03;;
3875;SDS011;1953;51.222;6.624;2023-05-14T10:06:32;24.90;;;18.83;;
3875;SDS011;1953;51.222;6.624;2023-05-14T10:11:19;22.00;;;17.03;;
3875;SDS011;1953;51.222;6.624;2023-05-14T10:16:07;18.33;;;14.40;;
3875;SDS011;1953;51.222;6.624;2023-05-14T10:20:56;19.27;;;14.97;;
3875;SDS011;1953;51.222;6.624;2023-05-14T10:25:44;16.73;;;14.03;;
3875;SDS011;1953;51.222;6.624;2023-05-14T10:30:28;15.77;;;14.23;;
3875;SDS011;1953;51.222;6.624;2023-05-14T10:35:14;19.83;;;13.07;;
3875;SDS011;1953;51.222;6.624;2023-05-14T10:39:58;15.23;;;13.73;;
3875;SDS011;1953;51.222;6.624;2023-05-14T10:44:49;15.17;;;13.60;;
3875;SDS011;1953;51.222;6.624;2023-05-14T10:49:36;14.67;;;13.17;;
3875;SDS011;1953;51.222;6.624;2023-05-14T10:54:19;20.33;;;13.30;;
3875;SDS011;1953;51.222;6.624;2023-05-14T10:59:03;19.97;;;14.60;;
3875;SDS011;1953;51.222;6.624;2023-05-14T11:03:52;16.57;;;12.90;;
3875;SDS011;1953;51.222;6.624;2023-05-14T11:08:36;18.13;;;12.40;;
3875;SDS011;1953;51.222;6.624;2023-05-14T11:13:19;15.23;;;12.00;;
3875;SDS011;1953;51.222;6.624;2023-05-14T11:18:02;19.67;;;12.63;;
3875;SDS011;1953;51.222;6.624;2023-05-14T11:22:46;17.03;;;13.67;;
3875;SDS011;1953;51.222;6.624;2023-05-14T11:27:33;14.70;;;13.20;;
3875;SDS011;1953;51.222;6.624;2023-05-14T11:32:16;20.20;;;16.20;;
3875;SDS011;1953;51.222;6.624;2023-05-14T11:37:01;17.73;;;13.40;;
3875;SDS011;1953;51.222;6.624;2023-05-14T11:41:45;22.10;;;16.20;;
3875;SDS011;1953;51.222;6.624;2023-05-14T11:46:29;17.70;;;15.20;;
3875;SDS011;1953;51.222;6.624;2023-05-14T11:51:11;17.83;;;13.73;;
3875;SDS011;1953;51.222;6.624;2023-05-14T11:55:54;17.30;;;14.20;;
3875;SDS011;1953;51.222;6.624;2023-05-14T12:00:37;18.80;;;15.27;;
3875;SDS011;1953;51.222;6.624;2023-05-14T12:05:21;19.90;;;15.10;;
3875;SDS011;1953;51.222;6.624;2023-05-14T12:12:47;16.43;;;13.37;;
3875;SDS011;1953;51.222;6.624;2023-05-14T12:17:30;14.23;;;12.73;;
3875;SDS011;1953;51.222;6.624;2023-05-14T12:22:14;16.47;;;11.87;;
3875;SDS011;1953;51.222;6.624;2023-05-14T12:26:59;18.27;;;10.77;;
3875;SDS011;1953;51.222;6.624;2023-05-14T12:31:47;14.23;;;10.30;;
3875;SDS011;1953;51.222;6.624;2023-05-14T12:36:30;9.27;;;6.60;;
3875;SDS011;1953;51.222;6.624;2023-05-14T12:41:13;8.10;;;5.97;;
3875;SDS011;1953;51.222;6.624;2023-05-14T12:45:55;13.13;;;6.10;;
3875;SDS011;1953;51.222;6.624;2023-05-14T12:50:39;6.50;;;5.87;;
3875;SDS011;1953;51.222;6.624;2023-05-14T12:55:22;11.18;;;5.70;;
3875;SDS011;1953;51.222;6.624;2023-05-14T13:00:05;8.77;;;5.80;;
3875;SDS011;1953;51.222;6.624;2023-05-14T13:04:50;5.60;;;5.13;;
3875;SDS011;1953;51.222;6.624;2023-05-14T13:09:34;6.10;;;5.38;;
3875;SDS011;1953;51.222;6.624;2023-05-14T13:14:16;5.22;;;4.80;;
3875;SDS011;1953;51.222;6.624;2023-05-14T13:18:59;10.40;;;4.88;;
3875;SDS011;1953;51.222;6.624;2023-05-14T13:23:41;9.55;;;4.55;;
3875;SDS011;1953;51.222;6.624;2023-05-14T13:28:25;5.30;;;5.00;;
3875;SDS011;1953;51.222;6.624;2023-05-14T13:33:08;5.05;;;4.50;;
3875;SDS011;1953;51.222;6.624;2023-05-14T13:37:50;5.45;;;4.75;;
3875;SDS011;1953;51.222;6.624;2023-05-14T13:42:33;5.57;;;5.03;;
3875;SDS011;1953;51.222;6.624;2023-05-14T13:47:17;5.50;;;5.10;;
3875;SDS011;1953;51.222;6.624;2023-05-14T13:51:59;5.55;;;5.03;;
3875;SDS011;1953;51.222;6.624;2023-05-14T13:56:42;5.40;;;4.47;;
3875;SDS011;1953;51.222;6.624;2023-05-14T14:01:24;5.32;;;4.82;;
3875;SDS011;1953;51.222;6.624;2023-05-14T14:06:08;4.80;;;4.50;;
3875;SDS011;1953;51.222;6.624;2023-05-14T14:10:51;4.80;;;4.40;;
3875;SDS011;1953;51.222;6.624;2023-05-14T14:15:34;5.00;;;4.40;;
3875;SDS011;1953;51.222;6.624;2023-05-14T14:20:17;5.78;;;4.10;;
3875;SDS011;1953;51.222;6.624;2023-05-14T14:25:01;4.93;;;4.60;;
3875;SDS011;1953;51.222;6.624;2023-05-14T14:29:44;5.38;;;4.95;;
3875;SDS011;1953;51.222;6.624;2023-05-14T14:34:26;4.55;;;4.15;;
3875;SDS011;1953;51.222;6.624;2023-05-14T14:39:09;4.95;;;4.55;;
3875;SDS011;1953;51.222;6.624;2023-05-14T14:43:53;5.90;;;5.32;;
3875;SDS011;1953;51.222;6.624;2023-05-14T14:48:35;5.30;;;4.90;;
3875;SDS011;1953;51.222;6.624;2023-05-14T14:53:18;5.10;;;4.70;;
3875;SDS011;1953;51.222;6.624;2023-05-14T14:58:01;6.32;;;4.80;;
3875;SDS011;1953;51.222;6.624;2023-05-14T15:02:45;7.22;;;4.80;;
3875;SDS011;1953;51.222;6.624;2023-05-14T15:07:27;7.03;;;4.45;;
3875;SDS011;1953;51.222;6.624;2023-05-14T15:12:12;5.47;;;4.32;;
3875;SDS011;1953;51.222;6.624;2023-05-14T15:16:56;6.90;;;4.43;;
3875;SDS011;1953;51.222;6.624;2023-05-14T15:21:40;8.02;;;5.38;;
3875;SDS011;1953;51.222;6.624;2023-05-14T15:26:23;6.25;;;5.65;;
3875;SDS011;1953;51.222;6.624;2023-05-14T15:31:06;5.72;;;5.22;;
3875;SDS011;1953;51.222;6.624;2023-05-14T15:35:48;5.78;;;5.38;;
3875;SDS011;1953;51.222;6.624;2023-05-14T15:40:32;9.18;;;6.35;;
3875;SDS011;1953;51.222;6.624;2023-05-14T15:45:15;10.87;;;6.53;;
3875;SDS011;1953;51.222;6.624;2023-05-14T15:49:58;7.27;;;6.23;;
3875;SDS011;1953;51.222;6.624;2023-05-14T15:54:40;7.20;;;6.50;;
3875;SDS011;1953;51.222;6.624;2023-05-14T15:59:24;7.27;;;6.50;;
3875;SDS011;1953;51.222;6.624;2023-05-14T16:04:07;7.47;;;6.67;;
3875;SDS011;1953;51.222;6.624;2023-05-14T16:08:49;7.43;;;6.70;;
3875;SDS011;1953;51.222;6.624;2023-05-14T16:13:32;10.47;;;6.10;;
3875;SDS011;1953;51.222;6.624;2023-05-14T16:18:16;7.80;;;7.13;;
3875;SDS011;1953;51.222;6.624;2023-05-14T16:22:59;7.90;;;7.20;;
3875;SDS011;1953;51.222;6.624;2023-05-14T16:27:41;6.80;;;6.17;;
3875;SDS011;1953;51.222;6.624;2023-05-14T16:32:24;8.10;;;7.07;;
3875;SDS011;1953;51.222;6.624;2023-05-14T16:37:08;8.00;;;7.30;;
3875;SDS011;1953;51.222;6.624;2023-05-14T16:41:51;10.37;;;7.30;;
3875;SDS011;1953;51.222;6.624;2023-05-14T16:46:33;8.73;;;6.97;;
3875;SDS011;1953;51.222;6.624;2023-05-14T16:51:16;7.37;;;6.63;;
3875;SDS011;1953;51.222;6.624;2023-05-14T16:56:00;8.00;;;7.30;;
3875;SDS011;1953;51.222;6.624;2023-05-14T17:00:43;10.20;;;7.80;;
3875;SDS011;1953;51.222;6.624;2023-05-14T17:05:25;11.80;;;7.63;;
3875;SDS011;1953;51.222;6.624;2023-05-14T17:10:08;8.90;;;8.10;;
3875;SDS011;1953;51.222;6.624;2023-05-14T17:14:52;10.30;;;7.30;;
3875;SDS011;1953;51.222;6.624;2023-05-14T17:19:35;8.50;;;7.37;;
3875;SDS011;1953;51.222;6.624;2023-05-14T17:24:17;13.60;;;7.37;;
3875;SDS011;1953;51.222;6.624;2023-05-14T17:29:00;9.17;;;7.80;;
3875;SDS011;1953;51.222;6.624;2023-05-14T17:33:44;9.10;;;6.70;;
3875;SDS011;1953;51.222;6.624;2023-05-14T17:38:27;10.27;;;7.23;;
3875;SDS011;1953;51.222;6.624;2023-05-14T17:43:09;7.83;;;7.13;;
3875;SDS011;1953;51.222;6.624;2023-05-14T17:47:52;10.70;;;7.17;;
3875;SDS011;1953;51.222;6.624;2023-05-14T17:52:35;12.10;;;7.77;;
3875;SDS011;1953;51.222;6.624;2023-05-14T17:57:18;7.67;;;6.87;;
3875;SDS011;1953;51.222;6.624;2023-05-14T18:02:02;7.70;;;7.00;;
3875;SDS011;1953;51.222;6.624;2023-05-14T18:06:47;7.63;;;6.97;;
3875;SDS011;1953;51.222;6.624;2023-05-14T18:11:31;8.80;;;6.97;;
3875;SDS011;1953;51.222;6.624;2023-05-14T18:16:13;7.80;;;6.60;;
3875;SDS011;1953;51.222;6.624;2023-05-14T18:20:56;11.67;;;7.80;;
3875;SDS011;1953;51.222;6.624;2023-05-14T18:25:38;8.20;;;7.40;;
3875;SDS011;1953;51.222;6.624;2023-05-14T18:30:22;7.80;;;7.00;;
3875;SDS011;1953;51.222;6.624;2023-05-14T18:35:05;12.70;;;6.90;;
3875;SDS011;1953;51.222;6.624;2023-05-14T18:39:48;8.60;;;7.20;;
3875;SDS011;1953;51.222;6.624;2023-05-14T18:44:30;7.77;;;6.80;;
3875;SDS011;1953;51.222;6.624;2023-05-14T18:49:14;8.63;;;7.83;;
3875;SDS011;1953;51.222;6.624;2023-05-14T18:53:57;9.13;;;7.63;;
3875;SDS011;1953;51.222;6.624;2023-05-14T18:58:40;12.00;;;7.33;;
3875;SDS011;1953;51.222;6.624;2023-05-14T19:03:22;10.60;;;7.27;;
3875;SDS011;1953;51.222;6.624;2023-05-14T19:08:06;11.27;;;7.33;;
3875;SDS011;1953;51.222;6.624;2023-05-14T19:12:49;7.97;;;7.20;;
3875;SDS011;1953;51.222;6.624;2023-05-14T19:17:32;9.10;;;7.77;;
3875;SDS011;1953;51.222;6.624;2023-05-14T19:22:14;8.37;;;7.10;;
3875;SDS011;1953;51.222;6.624;2023-05-14T19:26:58;8.70;;;7.40;;
3875;SDS011;1953;51.222;6.624;2023-05-14T19:31:41;9.30;;;7.37;;
3875;SDS011;1953;51.222;6.624;2023-05-14T19:36:23;14.47;;;7.73;;
3875;SDS011;1953;51.222;6.624;2023-05-14T19:41:06;7.73;;;7.00;;
3875;SDS011;1953;51.222;6.624;2023-05-14T19:45:50;11.50;;;7.70;;
3875;SDS011;1953;51.222;6.624;2023-05-14T19:50:33;10.27;;;7.23;;
3875;SDS011;1953;51.222;6.624;2023-05-14T19:55:16;11.37;;;8.00;;
3875;SDS011;1953;51.222;6.624;2023-05-14T19:59:59;10.73;;;6.97;;
3875;SDS011;1953;51.222;6.624;2023-05-14T20:04:43;8.80;;;7.87;;
3875;SDS011;1953;51.222;6.624;2023-05-14T20:09:27;8.37;;;7.57;;
3875;SDS011;1953;51.222;6.624;2023-05-14T20:14:09;8.83;;;8.03;;
3875;SDS011;1953;51.222;6.624;2023-05-14T20:18:52;10.67;;;7.90;;
3875;SDS011;1953;51.222;6.624;2023-05-14T20:23:36;8.40;;;7.50;;
3875;SDS011;1953;51.222;6.624;2023-05-14T20:28:19;9.67;;;8.33;;
3875;SDS011;1953;51.222;6.624;2023-05-14T20:33:01;10.70;;;9.70;;
3875;SDS011;1953;51.222;6.624;2023-05-14T20:37:44;13.73;;;8.77;;
3875;SDS011;1953;51.222;6.624;2023-05-14T20:42:28;11.50;;;9.90;;
3875;SDS011;1953;51.222;6.624;2023-05-14T20:47:10;10.93;;;9.43;;
3875;SDS011;1953;51.222;6.624;2023-05-14T20:51:56;13.13;;;9.50;;
3875;SDS011;1953;51.222;6.624;2023-05-14T20:56:38;17.73;;;9.40;;
3875;SDS011;1953;51.222;6.624;2023-05-14T21:01:22;11.47;;;10.03;;
3875;SDS011;1953;51.222;6.624;2023-05-14T21:06:05;18.27;;;11.07;;
3875;SDS011;1953;51.222;6.624;2023-05-14T21:10:47;14.47;;;9.80;;
3875;SDS011;1953;51.222;6.624;2023-05-14T21:15:30;13.40;;;11.17;;
3875;SDS011;1953;51.222;6.624;2023-05-14T21:20:14;14.70;;;11.77;;
3875;SDS011;1953;51.222;6.624;2023-05-14T21:24:56;14.13;;;11.17;;
3875;SDS011;1953;51.222;6.624;2023-05-14T21:29:39;13.30;;;11.50;;
3875;SDS011;1953;51.222;6.624;2023-05-14T21:34:21;13.27;;;11.97;;
3875;SDS011;1953;51.222;6.624;2023-05-14T21:39:05;16.33;;;11.30;;
3875;SDS011;1953;51.222;6.624;2023-05-14T21:43:47;13.20;;;11.90;;
3875;SDS011;1953;51.222;6.624;2023-05-14T21:48:30;16.73;;;12.33;;
3875;SDS011;1953;51.222;6.624;2023-05-14T21:53:12;15.40;;;12.10;;
3875;SDS011;1953;51.222;6.624;2023-05-14T21:57:57;16.33;;;13.00;;
3875;SDS011;1953;51.222;6.624;2023-05-14T22:02:39;19.50;;;13.57;;
3875;SDS011;1953;51.222;6.624;2023-05-14T22:07:22;15.77;;;13.50;;
3875;SDS011;1953;51.222;6.624;2023-05-14T22:12:05;22.37;;;13.43;;
3875;SDS011;1953;51.222;6.624;2023-05-14T22:16:49;21.97;;;14.07;;
3875;SDS011;1953;51.222;6.624;2023-05-14T22:21:32;23.10;;;15.07;;
3875;SDS011;1953;51.222;6.624;2023-05-14T22:26:14;19.97;;;15.13;;
3875;SDS011;1953;51.222;6.624;2023-05-14T22:30:57;20.00;;;15.30;;
3875;SDS011;1953;51.222;6.624;2023-05-14T22:35:41;21.60;;;15.53;;
3875;SDS011;1953;51.222;6.624;2023-05-14T22:40:24;22.30;;;16.70;;
3875;SDS011;1953;51.222;6.624;2023-05-14T22:45:07;24.80;;;17.57;;
3875;SDS011;1953;51.222;6.624;2023-05-14T22:49:50;23.37;;;17.23;;
3875;SDS011;1953;51.222;6.624;2023-05-14T22:54:34;30.70;;;18.03;;
3875;SDS011;1953;51.222;6.624;2023-05-14T22:59:17;26.30;;;19.17;;
3875;SDS011;1953;51.222;6.624;2023-05-14T23:03:59;24.23;;;19.00;;
3875;SDS011;1953;51.222;6.624;2023-05-14T23:08:42;27.57;;;20.70;;
3875;SDS011;1953;51.222;6.624;2023-05-14T23:13:26;28.03;;;20.50;;
3875;SDS011;1953;51.222;6.624;2023-05-14T23:18:08;29.50;;;20.57;;
3875;SDS011;1953;51.222;6.624;2023-05-14T23:22:51;34.40;;;21.90;;
3875;SDS011;1953;51.222;6.624;2023-05-14T23:27:33;27.23;;;20.20;;
3875;SDS011;1953;51.222;6.624;2023-05-14T23:32:17;31.87;;;22.40;;
3875;SDS011;1953;51.222;6.624;2023-05-14T23:37:00;31.10;;;21.90;;
3875;SDS011;1953;51.222;6.624;2023-05-14T23:41:43;32.37;;;22.07;;
3875;SDS011;1953;51.222;6.624;2023-05-14T23:46:25;36.43;;;23.20;;
3875;SDS011;1953;51.222;6.624;2023-05-14T23:51:09;35.67;;;23.50;;
3875;SDS011;1953;51.222;6.624;2023-05-14T23:55:52;40.13;;;23.40;;
